Latest Coastal Weather Observations for Warrnambool

IDV60701

Issued at 12:25 pm EST Thursday 24 April 2014 (issued every 10 minutes, with the page automatically refreshed every 10 minutes)

About coastal observations | Map of coastal stations | Coastal observations for VIC | Marine services | Other Formats
Station Details ID: 090186 Name: WARRNAMBOOL AIRPORT NDB Lat: -38.29 Lon: 142.45 Height: 70.8 m
Data from the previous 72 hours. | See also: Recent months at Warrnambool
Date/Time
EST
Temp

°C
Wind Pressure Rain
since 9am
mm
Weather Cloud Vis
km
Sea
Height
m
Swell
Dir
 
Speed
knots
Gust
knots
hPa Trend Height
m
Period
s
Dir
24/12:00pm 15.3 SW 16 23 1018.2 - 0.0 - - - - - - -
24/11:30am 14.5 WSW 18 25 1018.0 - 0.0 - - - - - - -
24/11:00am 14.1 SW 19 24 1017.9 - 0.0 - - - - - - -
24/10:30am 14.4 WSW 15 21 1017.6 - 0.0 - - - - - - -
24/10:00am 14.4 SW 17 22 1017.2 - 0.0 - - - - - - -
24/09:30am 12.7 WSW 13 18 1017.0 - 0.0 - - - - - - -
24/09:00am 13.8 WSW 14 18 1016.5 - 2.8 - - - - - - -
24/08:30am 12.4 SW 18 25 1016.1 - 2.8 - - - - - - -
24/08:00am 12.3 SW 19 25 1015.3 - 2.8 - - - - - - -
24/07:30am 12.3 SW 14 19 1014.3 - 2.8 - - - - - - -
24/07:00am 11.8 WSW 16 23 1013.7 - 2.8 - - - - - - -
24/06:30am 13.0 SW 18 27 1013.0 - 2.8 - - - - - - -
24/06:17am 13.0 SW 15 27 1012.7 - 2.8 - - - - - - -
24/06:00am 13.0 WSW 17 23 1012.2 - 2.8 - - - - - - -
24/05:30am 12.9 SW 15 20 1011.5 - 2.8 - - - - - - -
24/05:00am 13.0 WSW 17 23 1011.0 - 2.8 - - - - - - -
24/04:30am 13.0 NW 13 17 1010.0 - 2.0 - - - - - - -
24/04:00am 13.5 NW 18 24 1009.4 - 0.0 - - - - - - -
24/03:30am 13.3 NW 17 21 1009.2 - 0.0 - - - - - - -
24/03:00am 13.2 NW 17 24 1009.1 - 0.0 - - - - - - -
24/02:30am 13.3 NNW 17 21 1009.2 - 0.0 - - - - - - -
24/02:00am 12.7 NNW 14 20 1009.6 - 0.0 - - - - - - -
24/01:30am 12.9 NNW 13 16 1009.8 - 0.0 - - - - - - -
24/01:00am 13.8 NNW 16 22 1010.0 - 0.0 - - - - - - -
24/12:30am 13.8 NNW 13 17 1010.4 - 0.0 - - - - - - -
24/12:00am 13.3 NNW 11 15 1010.6 - 0.0 - - - - - - -
 
Date/Time
EST
Temp

°C
Wind Pressure Rain
since 9am
mm
Weather Cloud Vis
km
Sea
Height
m
Swell
Dir
 
Speed
knots
Gust
knots
hPa Trend Height
m
Period
s
Dir
23/11:30pm 12.5 N 9 12 1010.9 - 0.0 - - - - - - -
23/11:00pm 12.2 N 9 12 1011.4 - 0.0 - - - - - - -
23/10:30pm 12.0 N 10 12 1011.7 - 0.0 - - - - - - -
23/10:00pm 11.7 N 11 12 1011.7 - 0.0 - - - - - - -
23/09:30pm 13.2 NNW 9 13 1011.9 - 0.0 - - - - - - -
23/09:00pm 12.1 N 9 11 1012.0 - 0.0 - - - - - - -
23/08:30pm 11.0 N 10 11 1012.1 - 0.0 - - - - - - -
23/08:00pm 10.6 N 8 10 1012.3 - 0.0 - - - - - - -
23/07:30pm 10.3 N 8 9 1012.4 - 0.0 - - - - - - -
23/07:00pm 11.3 N 7 8 1012.3 - 0.0 - - - - - - -
23/06:30pm 12.3 N 7 8 1012.3 - 0.0 - - - - - - -
23/06:00pm 13.0 NNW 7 9 1012.4 - 0.0 - - - - - - -
23/05:30pm 13.5 NNW 8 9 1012.3 - 0.0 - - - - - - -
23/05:00pm 14.8 NNW 7 8 1012.3 - 0.0 - - - - - - -
23/04:30pm 17.4 NNW 9 12 1012.5 - 0.0 - - - - - - -
23/04:00pm 17.6 NW 10 15 1012.7 - 0.0 - - - - - - -
23/03:30pm 17.9 NW 11 15 1012.9 - 0.0 - - - - - - -
23/03:00pm 17.8 NW 12 16 1013.1 - 0.0 - - - - - - -
23/02:30pm 17.5 NW 13 18 1013.3 - 0.0 - - - - - - -
23/02:00pm 16.5 NW 11 18 1013.9 - 0.0 - - - - - - -
23/01:30pm 16.2 WNW 10 14 1014.3 - 0.0 - - - - - - -
23/01:00pm 15.8 WNW 9 14 1014.7 - 0.0 - - - - - - -
23/12:30pm 15.8 NW 11 14 1015.0 - 0.0 - - - - - - -
23/12:00pm 15.5 NNW 11 16 1015.5 - 0.0 - - - - - - -
23/11:30am 15.2 NNW 11 15 1015.9 - 0.0 - - - - - - -
23/11:00am 14.7 NW 12 17 1016.4 - 0.0 - - - - - - -
23/10:30am 14.6 NNW 11 14 1016.9 - 0.0 - - - - - - -
23/10:00am 14.2 NNW 10 14 1017.0 - 0.0 - - - - - - -
23/09:30am 12.9 NNW 8 11 1017.1 - 0.0 - - - - - - -
23/09:00am 10.8 N 8 9 1017.1 - 0.2 - - - - - - -
23/08:30am 9.5 N 8 10 1017.1 - 0.2 - - - - - - -
23/08:00am 8.7 N 8 9 1016.8 - 0.2 - - - - - - -
23/07:30am 6.2 N 8 9 1016.7 - 0.2 - - - - - - -
23/07:00am 5.6 N 7 8 1016.7 - 0.2 - - - - - - -
23/06:30am 4.9 N 6 7 1016.8 - 0.2 - - - - - - -
23/06:00am 4.8 N 6 6 1016.7 - 0.2 - - - - - - -
23/05:30am 5.1 N 7 7 1016.4 - 0.2 - - - - - - -
23/05:00am 5.4 N 6 8 1016.3 - 0.2 - - - - - - -
23/04:30am 5.9 N 6 7 1016.1 - 0.2 - - - - - - -
23/04:00am 6.1 N 8 9 1016.0 - 0.2 - - - - - - -
23/03:30am 5.8 N 7 8 1016.4 - 0.2 - - - - - - -
23/03:00am 5.1 N 6 7 1016.4 - 0.2 - - - - - - -
23/02:30am 5.6 NW 6 7 1016.8 - 0.2 - - - - - - -
23/02:00am 7.4 NW 5 7 1017.0 - 0.2 - - - - - - -
23/01:30am 5.3 N 5 6 1017.2 - 0.2 - - - - - - -
23/01:00am 6.8 NW 6 7 1017.5 - 0.2 - - - - - - -
23/12:30am 6.3 NNW 5 6 1017.5 - 0.2 - - - - - - -
23/12:00am 6.6 N 6 6 1017.6 - 0.2 - - - - - - -
 
Date/Time
EST
Temp

°C
Wind Pressure Rain
since 9am
mm
Weather Cloud Vis
km
Sea
Height
m
Swell
Dir
 
Speed
knots
Gust
knots
hPa Trend Height
m
Period
s
Dir
22/11:30pm 7.1 NW 6 7 1017.8 - 0.2 - - - - - - -
22/11:00pm 7.7 NW 5 6 1017.9 - 0.2 - - - - - - -
22/10:30pm 7.3 NNW 5 6 1018.2 - 0.2 - - - - - - -
22/10:00pm 7.2 NNW 5 6 1018.3 - 0.2 - - - - - - -
22/09:30pm 7.6 NNW 5 6 1018.1 - 0.2 - - - - - - -
22/09:00pm 7.9 NNW 5 6 1018.0 - 0.2 - - - - - - -
22/08:30pm 8.9 NW 6 6 1017.9 - 0.2 - - - - - - -
22/08:00pm 9.8 NW 4 5 1017.8 - 0.2 - - - - - - -
22/07:30pm 10.6 NW 4 5 1017.5 - 0.2 - - - - - - -
22/07:00pm 10.2 WNW 3 4 1017.3 - 0.2 - - - - - - -
22/06:30pm 10.8 WSW 4 4 1017.0 - 0.2 - - - - - - -
22/06:00pm 12.1 SW 5 5 1016.7 - 0.2 - - - - - - -
22/05:30pm 13.9 SW 7 10 1016.5 - 0.2 - - - - - - -
22/05:00pm 15.1 SW 9 12 1016.3 - 0.2 - - - - - - -
22/04:30pm 15.8 SW 11 14 1016.1 - 0.2 - - - - - - -
22/04:00pm 15.4 SW 9 13 1016.0 - 0.2 - - - - - - -
22/03:30pm 15.9 SW 10 14 1015.6 - 0.2 - - - - - - -
22/03:00pm 15.8 SW 13 16 1015.5 - 0.2 - - - - - - -
22/02:30pm 16.2 SW 13 17 1015.3 - 0.2 - - - - - - -
22/02:00pm 15.9 SW 12 15 1015.3 - 0.2 - - - - - - -
22/01:30pm 16.0 SW 11 13 1015.4 - 0.2 - - - - - - -
22/01:00pm 16.2 SW 12 17 1015.4 - 0.2 - - - - - - -
22/12:30pm 15.8 SW 12 16 1015.6 - 0.2 - - - - - - -
22/12:00pm 16.2 SW 11 14 1015.6 - 0.2 - - - - - - -
22/11:30am 16.6 SSW 11 14 1015.6 - 0.2 - - - - - - -
22/11:00am 16.3 SSW 11 15 1015.4 - 0.2 - - - - - - -
22/10:30am 15.3 SW 11 14 1015.3 - 0.2 - - - - - - -
22/10:00am 15.2 SW 8 10 1015.1 - 0.2 - - - - - - -
22/09:30am 15.8 WSW 7 10 1014.8 - 0.0 - - - - - - -
22/09:00am 15.0 W 6 8 1014.5 - 12.0 - - - - - - -
22/08:30am 14.5 W 7 9 1014.3 - 12.0 - - - - - - -
22/08:00am 14.2 W 7 9 1014.0 - 12.0 - - - - - - -
22/07:30am 14.4 W 7 10 1013.4 - 11.8 - - - - - - -
22/07:00am 14.7 W 13 18 1013.0 - 11.8 - - - - - - -
22/06:30am 14.8 WNW 8 11 1012.4 - 11.8 - - - - - - -
22/06:00am 14.8 NW 10 13 1012.0 - 11.8 - - - - - - -
22/05:30am 14.7 NW 13 17 1011.5 - 11.8 - - - - - - -
22/05:00am 14.5 NNW 13 17 1011.0 - 11.8 - - - - - - -
22/04:30am 14.7 NNW 15 21 1011.0 - 11.4 - - - - - - -
22/04:00am 14.6 N 10 13 1011.4 - 11.0 - - - - - - -
22/03:30am 15.1 NW 13 24 1011.9 - 10.2 - - - - - - -
22/03:00am 15.2 NNW 6 7 1011.5 - 5.6 - - - - - - -
22/02:30am 15.4 WNW 6 9 1011.7 - 5.6 - - - - - - -
22/02:00am 14.9 N 8 11 1010.8 - 5.6 - - - - - - -
22/01:30am 15.3 N 11 15 1010.6 - 5.6 - - - - - - -
22/01:00am 15.8 N 11 15 1010.7 - 5.4 - - - - - - -
22/12:30am 15.6 N 14 18 1010.7 - 5.4 - - - - - - -
22/12:00am 15.8 N 12 15 1011.5 - 5.4 - - - - - - -
 
Date/Time
EST
Temp

°C
Wind Pressure Rain
since 9am
mm
Weather Cloud Vis
km
Sea
Height
m
Swell
Dir
 
Speed
knots
Gust
knots
hPa Trend Height
m
Period
s
Dir
21/11:30pm 15.8 N 10 13 1011.3 - 5.4 - - - - - - -
21/11:00pm 15.7 N 11 12 1011.3 - 5.4 - - - - - - -
21/10:30pm 16.0 NNW 15 19 1011.6 - 5.4 - - - - - - -
21/10:00pm 16.0 N 13 17 1012.1 - 3.8 - - - - - - -
21/09:30pm 16.5 WNW 11 17 1013.2 - 2.2 - - - - - - -
21/09:00pm 16.4 W 11 15 1012.6 - 0.6 - - - - - - -
21/08:30pm 17.4 W 12 15 1012.3 - 0.4 - - - - - - -
21/08:00pm 18.6 WNW 9 14 1012.3 - 0.2 - - - - - - -
21/07:30pm 20.5 N 10 14 1011.2 - 0.2 - - - - - - -
21/07:00pm 20.4 N 11 15 1010.7 - 0.2 - - - - - - -
21/06:30pm 20.8 N 13 18 1010.0 - 0.2 - - - - - - -
21/06:00pm 21.0 N 14 17 1010.0 - 0.2 - - - - - - -
21/05:30pm 21.7 N 18 26 1009.9 - 0.2 - - - - - - -
21/05:20pm 21.5 N 18 28 1009.8 - 0.2 - - - - - - -
21/05:00pm 21.5 N 18 24 1009.9 - 0.2 - - - - - - -
21/04:30pm 21.6 N 20 26 1009.9 - 0.2 - - - - - - -
21/04:00pm 21.7 N 23 29 1010.1 - 0.2 - - - - - - -
21/03:30pm 21.7 N 22 30 1010.2 - 0.2 - - - - - - -
21/03:12pm 21.6 N 21 31 1010.0 - 0.2 - - - - - - -
21/03:00pm 21.6 N 21 29 1010.0 - 0.2 - - - - - - -
21/02:30pm 22.4 N 24 31 1010.5 - 0.2 - - - - - - -
21/02:00pm 21.3 N 23 34 1010.8 - 0.2 - - - - - - -
21/01:40pm 21.8 N 19 31 1011.3 - 0.2 - - - - - - -
21/01:30pm 20.5 N 19 28 1011.6 - 0.2 - - - - - - -
21/01:25pm 20.7 N 17 28 1011.6 - 0.2 - - - - - - -
21/01:00pm 19.4 N 21 28 1012.2 - 0.2 - - - - - - -
21/12:47pm 19.1 N 17 27 1012.5 - 0.0 - - - - - - -
21/12:30pm 19.0 N 18 25 1013.0 - 0.0 - - - - - - -

Other Formats:

Comma delimited format used in spreadsheet applications
http://www.bom.gov.au/fwo/IDV60701/IDV60701.94837.axf

JavaScript Object Notation format (JSON) in row-major order
http://www.bom.gov.au/fwo/IDV60701/IDV60701.94837.json